createdAt,value
2018-08-25T00:00:26.971Z,5.10
2018-08-25T00:02:56.521Z,4.97
2018-08-25T00:05:25.855Z,6.53
2018-08-25T00:07:55.195Z,6.10
2018-08-25T00:10:24.661Z,5.53
2018-08-25T00:12:54.043Z,5.40
2018-08-25T00:15:23.308Z,6.10
2018-08-25T00:17:52.889Z,5.87
2018-08-25T00:20:22.219Z,5.53
2018-08-25T00:22:52.458Z,5.03
2018-08-25T00:25:21.875Z,6.73
2018-08-25T00:27:51.178Z,5.50
2018-08-25T00:30:26.642Z,6.10
2018-08-25T00:32:56.135Z,6.20
2018-08-25T00:35:25.646Z,4.10
2018-08-25T00:37:55.118Z,5.17
2018-08-25T00:40:24.431Z,5.67
2018-08-25T00:42:53.754Z,5.50
2018-08-25T00:45:23.126Z,4.10
2018-08-25T00:47:52.553Z,5.60
2018-08-25T00:50:22.437Z,5.30
2018-08-25T00:52:52.009Z,4.83
2018-08-25T00:55:21.402Z,4.60
2018-08-25T00:57:50.749Z,4.90
2018-08-25T01:00:20.236Z,5.50
2018-08-25T01:02:49.640Z,5.80
2018-08-25T01:05:19.064Z,6.37
2018-08-25T01:07:48.703Z,5.60
2018-08-25T01:10:18.135Z,5.23
2018-08-25T01:12:47.569Z,4.73
2018-08-25T01:15:17.107Z,5.17
2018-08-25T01:17:46.486Z,6.30
2018-08-25T01:20:15.891Z,6.43
2018-08-25T01:22:45.403Z,5.17
2018-08-25T01:25:14.661Z,6.23
2018-08-25T01:27:43.988Z,5.87
2018-08-25T01:30:13.834Z,6.57
2018-08-25T01:32:43.459Z,5.87
2018-08-25T01:35:13.812Z,5.70
2018-08-25T01:37:43.224Z,5.87
2018-08-25T01:40:12.451Z,6.40
2018-08-25T01:42:41.947Z,6.20
2018-08-25T01:45:11.187Z,6.17
2018-08-25T01:47:40.603Z,6.50
2018-08-25T01:50:09.867Z,5.80
2018-08-25T01:52:39.219Z,7.30
2018-08-25T01:55:09.190Z,6.80
2018-08-25T01:57:38.723Z,6.63
2018-08-25T02:00:08.376Z,5.93
2018-08-25T02:02:37.649Z,6.80
2018-08-25T02:05:06.890Z,5.93
2018-08-25T02:07:36.275Z,5.77
2018-08-25T02:10:05.734Z,5.83
2018-08-25T02:12:34.888Z,5.80
2018-08-25T02:15:04.061Z,6.50
2018-08-25T02:17:33.535Z,6.90
2018-08-25T02:20:02.948Z,7.17
2018-08-25T02:22:32.475Z,6.60
2018-08-25T02:25:01.784Z,6.07
2018-08-25T02:27:31.132Z,6.23
2018-08-25T02:30:00.735Z,6.00
2018-08-25T02:32:30.940Z,7.70
2018-08-25T02:35:00.440Z,6.57
2018-08-25T02:37:30.380Z,7.73
2018-08-25T02:39:59.902Z,6.50
2018-08-25T02:42:29.358Z,6.40
2018-08-25T02:44:58.684Z,7.13
2018-08-25T02:47:28.265Z,7.00
2018-08-25T02:49:57.843Z,7.27
2018-08-25T02:52:27.167Z,6.60
2018-08-25T02:54:56.452Z,7.20
2018-08-25T02:57:25.745Z,6.83
2018-08-25T02:59:55.119Z,7.40
2018-08-25T03:02:24.816Z,7.00
2018-08-25T03:04:54.795Z,5.93
2018-08-25T03:07:24.205Z,7.17
2018-08-25T03:09:53.473Z,7.73
2018-08-25T03:12:22.894Z,6.77
2018-08-25T03:14:52.796Z,6.50
2018-08-25T03:17:22.139Z,6.90
2018-08-25T03:19:51.451Z,7.17
2018-08-25T03:22:20.808Z,6.60
2018-08-25T03:24:50.227Z,7.43
2018-08-25T03:27:19.584Z,6.37
2018-08-25T03:29:48.826Z,7.47
2018-08-25T03:32:18.232Z,8.33
2018-08-25T03:34:47.691Z,8.37
2018-08-25T03:37:16.945Z,8.93
2018-08-25T03:39:46.321Z,7.27
2018-08-25T03:42:15.738Z,8.50
2018-08-25T03:44:45.103Z,8.60
2018-08-25T03:47:14.379Z,8.30
2018-08-25T03:49:43.720Z,8.37
2018-08-25T03:52:12.952Z,7.40
2018-08-25T03:54:42.443Z,8.60
2018-08-25T03:57:11.751Z,8.27
2018-08-25T03:59:41.298Z,9.27
2018-08-25T04:02:10.725Z,7.87
2018-08-25T04:04:40.184Z,8.20
2018-08-25T04:07:09.947Z,8.43
2018-08-25T04:09:39.570Z,8.50
2018-08-25T04:12:08.859Z,9.53
2018-08-25T04:14:38.168Z,8.47
2018-08-25T04:17:07.733Z,7.70
2018-08-25T04:19:37.211Z,9.43
2018-08-25T04:22:06.649Z,10.03
2018-08-25T04:24:36.001Z,7.70
2018-08-25T04:27:05.238Z,8.20
2018-08-25T04:29:34.677Z,7.97
2018-08-25T04:32:04.230Z,7.77
2018-08-25T04:34:33.551Z,7.13
2018-08-25T04:37:02.909Z,6.90
2018-08-25T04:39:32.254Z,7.57
2018-08-25T04:42:01.822Z,5.83
2018-08-25T04:44:31.192Z,6.63
2018-08-25T04:47:00.566Z,7.30
2018-08-25T04:49:30.015Z,6.70
2018-08-25T04:51:59.392Z,6.43
2018-08-25T04:54:28.982Z,7.77
2018-08-25T04:56:58.596Z,7.10
2018-08-25T04:59:29.951Z,6.97
2018-08-25T05:01:59.469Z,8.00
2018-08-25T05:04:28.821Z,7.07
2018-08-25T05:06:58.054Z,7.73
2018-08-25T05:09:27.502Z,7.77
2018-08-25T05:11:57.587Z,6.67
2018-08-25T05:14:27.032Z,8.33
2018-08-25T05:16:56.455Z,7.87
2018-08-25T05:19:25.919Z,8.07
2018-08-25T05:21:55.537Z,8.70
2018-08-25T05:24:24.859Z,9.30
2018-08-25T05:26:54.299Z,8.07
2018-08-25T05:29:23.730Z,8.80
2018-08-25T05:31:53.105Z,7.80
2018-08-25T05:34:22.969Z,7.33
2018-08-25T05:36:52.412Z,9.13
2018-08-25T05:39:22.817Z,6.97
2018-08-25T05:41:52.136Z,9.00
2018-08-25T05:44:21.655Z,7.83
2018-08-25T05:46:51.029Z,8.30
2018-08-25T05:49:21.019Z,8.10
2018-08-25T05:51:50.420Z,7.80
2018-08-25T05:54:20.080Z,7.40
2018-08-25T05:56:49.631Z,8.10
2018-08-25T05:59:19.030Z,7.40
2018-08-25T06:01:48.478Z,8.40
2018-08-25T06:04:17.802Z,7.10
2018-08-25T06:06:47.089Z,8.57
2018-08-25T06:09:16.561Z,7.50
2018-08-25T06:11:45.792Z,7.20
2018-08-25T06:14:15.182Z,7.10
2018-08-25T06:16:44.414Z,7.80
2018-08-25T06:19:13.812Z,7.23
2018-08-25T06:21:43.180Z,7.80
2018-08-25T06:24:12.760Z,7.00
2018-08-25T06:26:41.968Z,7.00
2018-08-25T06:29:11.335Z,7.63
2018-08-25T06:31:40.771Z,7.30
2018-08-25T06:34:10.531Z,8.03
2018-08-25T06:36:40.041Z,7.20
2018-08-25T06:39:10.636Z,8.27
2018-08-25T06:41:40.259Z,7.60
2018-08-25T06:44:10.327Z,7.13
2018-08-25T06:46:40.059Z,7.70
2018-08-25T06:49:09.675Z,8.50
2018-08-25T06:51:39.097Z,7.57
2018-08-25T06:54:09.366Z,7.97
2018-08-25T06:56:39.634Z,7.90
2018-08-25T06:59:08.969Z,7.17
2018-08-25T07:01:38.497Z,8.03
2018-08-25T07:04:08.006Z,7.67
2018-08-25T07:06:37.615Z,7.77
2018-08-25T07:09:10.336Z,6.97
2018-08-25T07:11:39.753Z,7.43
2018-08-25T07:14:10.691Z,8.07
2018-08-25T07:16:40.049Z,8.47
2018-08-25T07:19:09.602Z,8.07
2018-08-25T07:21:40.361Z,7.63
2018-08-25T07:24:10.654Z,7.50
2018-08-25T07:26:40.157Z,8.37
2018-08-25T07:29:10.315Z,8.23
2018-08-25T07:31:41.066Z,7.70
2018-08-25T07:34:11.021Z,7.83
2018-08-25T07:36:40.563Z,8.47
2018-08-25T07:39:12.225Z,9.10
2018-08-25T07:41:41.875Z,8.00
2018-08-25T07:44:12.291Z,8.07
2018-08-25T07:46:42.031Z,8.77
2018-08-25T07:49:11.325Z,8.27
2018-08-25T07:51:41.305Z,8.43
2018-08-25T07:54:10.739Z,8.80
2018-08-25T07:56:40.112Z,7.00
2018-08-25T07:59:09.809Z,8.40
2018-08-25T08:01:39.823Z,8.37
2018-08-25T08:04:09.418Z,8.47
2018-08-25T08:06:38.841Z,8.53
2018-08-25T08:09:10.489Z,7.93
2018-08-25T08:11:39.863Z,8.40
2018-08-25T08:14:09.722Z,8.70
2018-08-25T08:16:39.090Z,8.73
2018-08-25T08:19:08.737Z,8.23
2018-08-25T08:21:38.059Z,7.90
2018-08-25T08:24:07.546Z,7.40
2018-08-25T08:26:37.351Z,7.63
2018-08-25T08:29:06.979Z,8.53
2018-08-25T08:31:36.284Z,9.70
2018-08-25T08:34:05.628Z,9.20
2018-08-25T08:36:34.935Z,8.47
2018-08-25T08:39:05.186Z,8.90
2018-08-25T08:41:34.498Z,8.30
2018-08-25T08:44:04.301Z,8.43
2018-08-25T08:46:34.922Z,8.00
2018-08-25T08:49:06.086Z,8.10
2018-08-25T08:51:36.657Z,8.17
2018-08-25T08:54:05.891Z,8.50
2018-08-25T08:56:35.273Z,9.00
2018-08-25T08:59:04.610Z,9.83
2018-08-25T09:01:34.229Z,9.13
2018-08-25T09:04:04.366Z,9.57
2018-08-25T09:06:33.621Z,8.10
2018-08-25T09:09:03.156Z,7.50
2018-08-25T09:11:32.636Z,10.60
2018-08-25T09:14:02.671Z,8.93
2018-08-25T09:16:32.152Z,9.67
2018-08-25T09:19:02.775Z,8.70
2018-08-25T09:21:32.166Z,9.90
2018-08-25T09:24:01.495Z,9.33
2018-08-25T09:26:31.025Z,7.93
2018-08-25T09:29:00.447Z,9.80
2018-08-25T09:31:30.927Z,8.70
2018-08-25T09:34:00.376Z,9.40
2018-08-25T09:36:29.968Z,8.73
2018-08-25T09:38:59.479Z,8.20
2018-08-25T09:41:29.225Z,8.00
2018-08-25T09:43:58.504Z,8.83
2018-08-25T09:46:27.923Z,9.13
2018-08-25T09:48:57.286Z,8.90
2018-08-25T09:51:26.744Z,9.23
2018-08-25T09:53:56.215Z,9.77
2018-08-25T09:56:26.171Z,9.50
2018-08-25T09:58:55.711Z,10.47
2018-08-25T10:01:31.086Z,9.17
2018-08-25T10:04:01.191Z,9.63
2018-08-25T10:06:30.507Z,9.77
2018-08-25T10:08:59.898Z,9.63
2018-08-25T10:11:29.304Z,9.40
2018-08-25T10:13:58.951Z,9.33
2018-08-25T10:16:29.134Z,9.60
2018-08-25T10:18:58.584Z,9.00
2018-08-25T10:21:28.026Z,9.73
2018-08-25T10:23:57.457Z,9.37
2018-08-25T10:26:27.164Z,9.93
2018-08-25T10:28:56.626Z,8.30
2018-08-25T10:31:26.211Z,9.93
2018-08-25T10:33:56.894Z,9.17
2018-08-25T10:36:26.620Z,8.60
2018-08-25T10:38:56.169Z,9.17
2018-08-25T10:41:25.469Z,9.20
2018-08-25T10:43:55.244Z,10.67
2018-08-25T10:46:24.804Z,7.43
2018-08-25T10:48:55.476Z,9.60
2018-08-25T10:51:24.903Z,8.80
2018-08-25T10:53:54.523Z,8.73
2018-08-25T10:56:24.203Z,9.50
2018-08-25T10:58:54.060Z,10.10
2018-08-25T11:01:23.448Z,8.10
2018-08-25T11:03:52.938Z,8.53
2018-08-25T11:06:23.608Z,8.03
2018-08-25T11:08:53.302Z,8.30
2018-08-25T11:11:22.779Z,7.70
2018-08-25T11:13:52.175Z,8.90
2018-08-25T11:16:22.331Z,8.93
2018-08-25T11:18:52.712Z,8.93
2018-08-25T11:21:22.410Z,7.07
2018-08-25T11:23:52.217Z,8.33
2018-08-25T11:26:21.782Z,8.37
2018-08-25T11:28:51.716Z,8.23
2018-08-25T11:31:21.157Z,8.27
2018-08-25T11:33:51.490Z,7.30
2018-08-25T11:36:21.150Z,7.23
2018-08-25T11:38:51.302Z,7.33
2018-08-25T11:41:21.625Z,7.30
2018-08-25T11:43:51.205Z,7.90
2018-08-25T11:46:22.523Z,8.60
2018-08-25T11:48:52.239Z,8.77
2018-08-25T11:51:21.947Z,8.53
2018-08-25T11:53:51.297Z,9.03
2018-08-25T11:56:20.845Z,12.87
2018-08-25T11:58:50.271Z,11.93
2018-08-25T12:01:19.969Z,8.20
2018-08-25T12:03:50.141Z,7.00
2018-08-25T12:06:20.009Z,7.00
2018-08-25T12:08:49.435Z,6.93
2018-08-25T12:11:18.879Z,6.83
2018-08-25T12:13:48.310Z,6.20
2018-08-25T12:16:17.707Z,7.30
2018-08-25T12:18:47.039Z,6.70
2018-08-25T12:21:16.497Z,7.10
2018-08-25T12:23:45.871Z,8.40
2018-08-25T12:26:15.453Z,6.80
2018-08-25T12:28:44.958Z,6.90
2018-08-25T12:31:15.644Z,7.07
2018-08-25T12:33:45.112Z,6.40
2018-08-25T12:36:15.042Z,6.13
2018-08-25T12:38:45.051Z,7.37
2018-08-25T12:41:14.445Z,7.27
2018-08-25T12:43:44.482Z,6.10
2018-08-25T12:46:14.157Z,6.53
2018-08-25T12:48:43.631Z,6.47
2018-08-25T12:51:13.049Z,6.40
2018-08-25T12:53:43.176Z,6.90
2018-08-25T12:56:13.488Z,7.67
2018-08-25T12:58:43.787Z,6.70
2018-08-25T13:01:13.160Z,6.27
2018-08-25T13:03:42.624Z,6.90
2018-08-25T13:06:12.021Z,6.97
2018-08-25T13:08:41.514Z,7.10
2018-08-25T13:11:10.983Z,7.10
2018-08-25T13:13:40.433Z,7.23
2018-08-25T13:16:09.996Z,7.27
2018-08-25T13:18:40.081Z,7.00
2018-08-25T13:21:09.381Z,6.73
2018-08-25T13:23:38.752Z,6.40
2018-08-25T13:26:08.109Z,8.50
2018-08-25T13:28:38.276Z,7.47
2018-08-25T13:31:07.785Z,6.13
2018-08-25T13:33:37.125Z,5.90
2018-08-25T13:36:06.555Z,6.37
2018-08-25T13:38:35.923Z,5.87
2018-08-25T13:41:05.974Z,6.63
2018-08-25T13:43:35.863Z,7.03
2018-08-25T13:46:05.131Z,6.40
2018-08-25T13:48:34.474Z,6.50
2018-08-25T13:51:03.781Z,6.40
2018-08-25T13:53:33.488Z,6.30
2018-08-25T13:56:03.122Z,5.90
2018-08-25T13:58:33.350Z,5.60
2018-08-25T14:01:02.708Z,5.40
2018-08-25T14:03:32.132Z,6.53
2018-08-25T14:06:01.612Z,6.47
2018-08-25T14:08:31.502Z,6.60
2018-08-25T14:11:00.865Z,6.23
2018-08-25T14:13:30.613Z,6.57
2018-08-25T14:16:00.106Z,6.40
2018-08-25T14:18:30.167Z,5.73
2018-08-25T14:20:59.737Z,6.30
2018-08-25T14:23:30.179Z,6.80
2018-08-25T14:25:59.679Z,6.70
2018-08-25T14:28:29.184Z,6.70
2018-08-25T14:30:58.612Z,5.27
2018-08-25T14:33:27.963Z,5.80
2018-08-25T14:35:58.411Z,6.57
2018-08-25T14:38:27.994Z,5.23
2018-08-25T14:40:57.672Z,5.90
2018-08-25T14:43:27.040Z,5.60
2018-08-25T14:45:58.084Z,5.60
2018-08-25T14:48:28.264Z,5.93
2018-08-25T14:50:57.744Z,4.43
2018-08-25T14:53:27.669Z,5.07
2018-08-25T14:55:57.802Z,6.63
2018-08-25T14:58:27.759Z,6.17
2018-08-25T15:00:58.413Z,4.23
2018-08-25T15:03:28.536Z,5.17
2018-08-25T15:05:58.376Z,5.60
2018-08-25T15:08:27.890Z,5.40
2018-08-25T15:10:57.489Z,5.67
2018-08-25T15:13:28.062Z,4.43
2018-08-25T15:15:57.661Z,5.60
2018-08-25T15:18:27.474Z,4.47
2018-08-25T15:20:57.014Z,4.80
2018-08-25T15:23:26.621Z,3.60
2018-08-25T15:25:55.928Z,3.83
2018-08-25T15:28:25.340Z,5.23
2018-08-25T15:30:54.852Z,4.30
2018-08-25T15:33:24.535Z,4.60
2018-08-25T15:35:54.103Z,4.27
2018-08-25T15:38:23.608Z,4.13
2018-08-25T15:40:53.671Z,3.83
2018-08-25T15:43:23.005Z,4.33
2018-08-25T15:45:52.744Z,4.80
2018-08-25T15:48:23.226Z,5.40
2018-08-25T15:50:53.502Z,4.50
2018-08-25T15:53:22.978Z,6.87
2018-08-25T15:55:52.503Z,5.47
2018-08-25T15:58:22.475Z,4.30
2018-08-25T16:00:51.943Z,6.00
2018-08-25T16:03:21.513Z,6.90
2018-08-25T16:05:50.960Z,6.83
2018-08-25T16:08:20.994Z,5.50
2018-08-25T16:10:50.637Z,5.33
2018-08-25T16:13:21.602Z,5.80
2018-08-25T16:15:51.224Z,5.43
2018-08-25T16:18:21.836Z,5.50
2018-08-25T16:20:52.627Z,3.93
2018-08-25T16:23:21.997Z,3.67
2018-08-25T16:25:52.485Z,5.40
2018-08-25T16:28:22.321Z,4.63
2018-08-25T16:30:52.105Z,4.50
2018-08-25T16:33:22.331Z,4.83
2018-08-25T16:35:53.098Z,5.30
2018-08-25T16:38:22.610Z,4.43
2018-08-25T16:40:52.472Z,4.50
2018-08-25T16:43:22.141Z,4.40
2018-08-25T16:45:51.625Z,4.50
2018-08-25T16:48:21.217Z,4.50
2018-08-25T16:50:50.715Z,4.63
2018-08-25T16:53:20.208Z,4.13
2018-08-25T16:55:50.142Z,4.30
2018-08-25T16:58:19.636Z,3.97
2018-08-25T17:00:48.833Z,4.73
2018-08-25T17:03:18.344Z,4.30
2018-08-25T17:05:47.815Z,4.97
2018-08-25T17:08:17.423Z,4.20
2018-08-25T17:10:46.788Z,4.80
2018-08-25T17:13:16.413Z,4.60
2018-08-25T17:15:45.840Z,3.70
2018-08-25T17:18:15.336Z,4.77
2018-08-25T17:20:45.264Z,4.20
2018-08-25T17:23:15.108Z,3.83
2018-08-25T17:25:45.186Z,4.63
2018-08-25T17:28:15.387Z,4.27
2018-08-25T17:30:45.028Z,4.60
2018-08-25T17:33:14.522Z,4.27
2018-08-25T17:35:45.034Z,6.20
2018-08-25T17:38:15.993Z,5.83
2018-08-25T17:40:45.627Z,5.57
2018-08-25T17:43:15.436Z,5.93
2018-08-25T17:45:44.977Z,5.20
2018-08-25T17:48:14.419Z,4.43
2018-08-25T17:50:43.827Z,4.83
2018-08-25T17:53:13.882Z,5.10
2018-08-25T17:55:43.859Z,4.30
2018-08-25T17:58:14.105Z,4.13
2018-08-25T18:00:43.498Z,3.83
2018-08-25T18:03:13.837Z,5.20
2018-08-25T18:05:45.035Z,5.60
2018-08-25T18:08:15.159Z,5.23
2018-08-25T18:10:45.679Z,4.83
2018-08-25T18:13:15.428Z,4.63
2018-08-25T18:15:45.333Z,4.70
2018-08-25T18:18:16.303Z,4.10
2018-08-25T18:20:46.535Z,4.27
2018-08-25T18:23:16.191Z,4.80
2018-08-25T18:25:46.915Z,4.87
2018-08-25T18:28:16.493Z,5.57
2018-08-25T18:30:46.278Z,4.33
2018-08-25T18:33:16.045Z,4.80
2018-08-25T18:35:46.945Z,4.73
2018-08-25T18:38:17.237Z,4.83
2018-08-25T18:40:46.722Z,5.10
2018-08-25T18:43:16.385Z,3.80
2018-08-25T18:45:46.032Z,5.30
2018-08-25T18:48:16.843Z,4.87
2018-08-25T18:50:47.315Z,4.10
2018-08-25T18:53:16.928Z,3.90
2018-08-25T18:55:46.951Z,4.30
2018-08-25T18:58:17.231Z,3.60
2018-08-25T19:00:47.440Z,4.10
2018-08-25T19:03:17.809Z,4.60
2018-08-25T19:05:47.938Z,4.40
2018-08-25T19:08:17.492Z,4.47
2018-08-25T19:10:47.701Z,5.23
2018-08-25T19:13:17.751Z,4.70
2018-08-25T19:15:48.236Z,4.80
2018-08-25T19:18:18.289Z,4.10
2018-08-25T19:20:50.631Z,5.00
2018-08-25T19:23:20.115Z,4.80
2018-08-25T19:25:49.792Z,5.10
2018-08-25T19:28:19.277Z,4.37
2018-08-25T19:30:49.839Z,4.50
2018-08-25T19:33:20.370Z,4.10
2018-08-25T19:35:50.803Z,4.83
2018-08-25T19:38:20.757Z,4.70
2018-08-25T19:40:51.221Z,5.47
2018-08-25T19:43:22.169Z,4.63
2018-08-25T19:45:53.128Z,4.87
2018-08-25T19:48:24.982Z,4.00
2018-08-25T19:50:54.875Z,4.87
2018-08-25T19:53:25.699Z,5.13
2018-08-25T19:55:55.697Z,4.20
2018-08-25T19:58:26.415Z,4.30
2018-08-25T20:00:56.212Z,4.20
2018-08-25T20:03:27.632Z,4.30
2018-08-25T20:05:57.153Z,3.70
2018-08-25T20:08:28.162Z,3.80
2018-08-25T20:10:58.069Z,5.00
2018-08-25T20:13:27.551Z,4.43
2018-08-25T20:15:57.877Z,4.30
2018-08-25T20:18:27.872Z,4.03
2018-08-25T20:20:57.366Z,4.30
2018-08-25T20:23:26.648Z,4.30
2018-08-25T20:25:56.429Z,4.60
2018-08-25T20:28:25.872Z,4.10
2018-08-25T20:30:55.391Z,5.03
2018-08-25T20:33:26.249Z,4.37
2018-08-25T20:35:55.698Z,3.63
2018-08-25T20:38:25.138Z,5.00
2018-08-25T20:40:54.631Z,4.17
2018-08-25T20:43:24.164Z,3.90
2018-08-25T20:45:53.848Z,6.80
2018-08-25T20:48:23.189Z,5.10
2018-08-25T20:50:53.170Z,3.40
2018-08-25T20:53:23.125Z,5.03
2018-08-25T20:55:52.498Z,4.90
2018-08-25T20:58:21.826Z,2.40
2018-08-25T21:00:51.281Z,4.33
2018-08-25T21:03:20.770Z,2.20
2018-08-25T21:05:50.306Z,0.73
2018-08-25T21:08:19.835Z,1.17
2018-08-25T21:10:51.381Z,0.77
2018-08-25T21:13:20.747Z,0.80
2018-08-25T21:15:50.199Z,0.90
2018-08-25T21:18:19.671Z,0.80
2018-08-25T21:20:49.363Z,0.90
2018-08-25T21:23:19.123Z,0.90
2018-08-25T21:25:49.209Z,0.60
2018-08-25T21:28:18.751Z,0.50
2018-08-25T21:30:48.918Z,0.50
2018-08-25T21:33:18.613Z,0.50
2018-08-25T21:35:48.019Z,0.57
2018-08-25T21:38:17.424Z,0.30
2018-08-25T21:40:47.518Z,0.40
2018-08-25T21:43:17.084Z,0.63
2018-08-25T21:45:46.472Z,0.70
2018-08-25T21:48:15.952Z,0.40
2018-08-25T21:50:45.148Z,0.50
2018-08-25T21:53:14.705Z,0.50
2018-08-25T21:55:44.341Z,0.40
2018-08-25T21:58:13.933Z,0.60
2018-08-25T22:00:48.207Z,0.60
2018-08-25T22:03:17.909Z,0.20
2018-08-25T22:05:48.027Z,0.40
2018-08-25T22:08:17.304Z,0.50
2018-08-25T22:10:46.882Z,0.57
2018-08-25T22:13:16.790Z,0.40
2018-08-25T22:15:46.394Z,0.40
2018-08-25T22:18:17.324Z,0.60
2018-08-25T22:20:46.876Z,0.60
2018-08-25T22:23:16.266Z,0.80
2018-08-25T22:25:45.871Z,0.53
2018-08-25T22:28:15.346Z,0.60
2018-08-25T22:30:44.730Z,0.60
2018-08-25T22:33:14.132Z,0.50
2018-08-25T22:35:43.520Z,0.80
2018-08-25T22:38:12.739Z,0.40
2018-08-25T22:40:42.585Z,1.37
2018-08-25T22:43:12.428Z,0.40
2018-08-25T22:45:41.918Z,1.20
2018-08-25T22:48:11.136Z,0.30
2018-08-25T22:50:40.559Z,0.70
2018-08-25T22:53:10.010Z,0.53
2018-08-25T22:55:39.499Z,0.70
2018-08-25T22:58:10.048Z,0.40
2018-08-25T23:00:39.812Z,0.50
2018-08-25T23:03:10.052Z,0.40
2018-08-25T23:05:39.693Z,0.60
2018-08-25T23:08:09.145Z,0.60
2018-08-25T23:10:39.790Z,0.40
2018-08-25T23:13:09.292Z,0.70
2018-08-25T23:15:38.680Z,0.47
2018-08-25T23:18:08.081Z,0.50
2018-08-25T23:20:37.665Z,0.90
2018-08-25T23:23:07.905Z,0.50
2018-08-25T23:25:38.022Z,0.70
2018-08-25T23:28:07.467Z,0.63
2018-08-25T23:30:36.931Z,0.50
2018-08-25T23:33:06.263Z,0.50
2018-08-25T23:35:36.118Z,0.50
2018-08-25T23:38:05.811Z,0.80
2018-08-25T23:40:35.433Z,0.80
2018-08-25T23:43:05.034Z,1.17
2018-08-25T23:45:34.967Z,0.73
2018-08-25T23:48:04.277Z,0.60
2018-08-25T23:50:34.835Z,0.50
2018-08-25T23:53:04.266Z,0.60
2018-08-25T23:55:34.018Z,0.40
2018-08-25T23:58:03.547Z,0.80
